createdAt,value
2023-02-15T00:00:23.364Z,19.10
2023-02-15T00:00:55.857Z,19.50
2023-02-15T00:01:28.288Z,18.70
2023-02-15T00:02:00.806Z,18.20
2023-02-15T00:02:33.298Z,18.40
2023-02-15T00:03:05.787Z,19.30
2023-02-15T00:03:38.208Z,19.50
2023-02-15T00:04:10.679Z,18.30
2023-02-15T00:04:43.214Z,18.40
2023-02-15T00:05:15.653Z,18.00
2023-02-15T00:05:48.107Z,17.90
2023-02-15T00:06:20.557Z,19.10
2023-02-15T00:06:53.009Z,18.70
2023-02-15T00:07:25.461Z,17.70
2023-02-15T00:07:57.912Z,18.00
2023-02-15T00:08:30.438Z,18.60
2023-02-15T00:09:02.867Z,19.60
2023-02-15T00:09:35.393Z,19.20
2023-02-15T00:10:07.856Z,19.30
2023-02-15T00:10:40.316Z,19.90
2023-02-15T00:11:12.799Z,19.60
2023-02-15T00:11:45.268Z,19.20
2023-02-15T00:12:17.764Z,20.20
2023-02-15T00:12:50.208Z,20.50
2023-02-15T00:13:22.656Z,19.30
2023-02-15T00:13:55.104Z,17.90
2023-02-15T00:14:27.535Z,16.90
2023-02-15T00:14:59.999Z,17.50
2023-02-15T00:15:32.433Z,16.70
2023-02-15T00:16:04.895Z,19.00
2023-02-15T00:16:37.386Z,19.50
2023-02-15T00:17:09.812Z,19.00
2023-02-15T00:17:42.400Z,18.30
2023-02-15T00:18:14.830Z,19.30
2023-02-15T00:18:47.316Z,19.20
2023-02-15T00:19:19.852Z,18.00
2023-02-15T00:19:52.261Z,18.60
2023-02-15T00:20:24.706Z,17.90
2023-02-15T00:20:57.165Z,18.20
2023-02-15T00:21:29.659Z,19.50
2023-02-15T00:22:02.155Z,19.60
2023-02-15T00:22:34.716Z,20.60
2023-02-15T00:23:07.154Z,20.10
2023-02-15T00:23:39.627Z,18.50
2023-02-15T00:24:12.110Z,16.90
2023-02-15T00:24:44.559Z,15.90
2023-02-15T00:25:17.080Z,16.60
2023-02-15T00:25:49.532Z,17.00
2023-02-15T00:26:21.990Z,18.70
2023-02-15T00:26:54.467Z,20.90
2023-02-15T00:27:26.917Z,20.70
2023-02-15T00:27:59.378Z,18.40
2023-02-15T00:28:31.831Z,18.30
2023-02-15T00:29:04.260Z,19.00
2023-02-15T00:29:36.690Z,18.70
2023-02-15T00:30:09.194Z,19.20
2023-02-15T00:30:41.649Z,19.20
2023-02-15T00:31:14.092Z,20.10
2023-02-15T00:31:46.553Z,18.90
2023-02-15T00:32:18.973Z,19.40
2023-02-15T00:32:51.416Z,19.50
2023-02-15T00:33:23.838Z,19.00
2023-02-15T00:33:56.331Z,20.30
2023-02-15T00:34:28.835Z,20.40
2023-02-15T00:35:01.305Z,19.90
2023-02-15T00:35:33.719Z,20.20
2023-02-15T00:36:06.211Z,19.30
2023-02-15T00:36:38.684Z,19.10
2023-02-15T00:37:11.117Z,19.80
2023-02-15T00:37:43.597Z,18.80
2023-02-15T00:38:16.159Z,17.90
2023-02-15T00:38:48.648Z,17.20
2023-02-15T00:39:21.098Z,17.20
2023-02-15T00:39:53.598Z,18.30
2023-02-15T00:40:26.045Z,19.90
2023-02-15T00:40:58.567Z,21.10
2023-02-15T00:41:30.990Z,19.90
2023-02-15T00:42:03.473Z,19.80
2023-02-15T00:42:36.011Z,19.60
2023-02-15T00:43:08.545Z,18.50
2023-02-15T00:43:40.972Z,18.20
2023-02-15T00:44:13.507Z,18.90
2023-02-15T00:44:45.961Z,20.00
2023-02-15T00:45:18.424Z,19.30
2023-02-15T00:45:50.915Z,18.90
2023-02-15T00:46:23.361Z,19.30
2023-02-15T00:46:55.825Z,19.20
2023-02-15T00:47:28.290Z,18.30
2023-02-15T00:48:00.844Z,18.20
2023-02-15T00:48:33.333Z,18.40
2023-02-15T00:49:05.850Z,18.80
2023-02-15T00:49:38.371Z,19.50
2023-02-15T00:50:10.873Z,19.60
2023-02-15T00:50:43.342Z,19.50
2023-02-15T00:51:15.787Z,20.00
2023-02-15T00:51:48.266Z,19.30
2023-02-15T00:52:20.746Z,20.50
2023-02-15T00:52:53.214Z,20.00
2023-02-15T00:53:25.681Z,19.80
2023-02-15T00:53:58.113Z,19.90
2023-02-15T00:54:30.545Z,18.90
2023-02-15T00:55:02.963Z,18.10
2023-02-15T00:55:35.397Z,19.10
2023-02-15T00:56:07.893Z,19.60
2023-02-15T00:56:40.453Z,19.80
2023-02-15T00:57:12.894Z,19.40
2023-02-15T00:57:45.388Z,18.70
2023-02-15T00:58:17.844Z,19.40
2023-02-15T00:58:50.348Z,20.30
2023-02-15T00:59:22.852Z,20.20
2023-02-15T00:59:55.270Z,20.10
2023-02-15T01:00:27.698Z,18.90
2023-02-15T01:01:00.203Z,18.60
2023-02-15T01:01:32.613Z,19.00
2023-02-15T01:02:05.062Z,19.40
2023-02-15T01:02:37.473Z,19.40
2023-02-15T01:03:09.943Z,18.70
2023-02-15T01:03:42.429Z,17.70
2023-02-15T01:04:14.901Z,18.40
2023-02-15T01:04:47.328Z,19.10
2023-02-15T01:05:19.815Z,19.20
2023-02-15T01:05:52.285Z,18.30
2023-02-15T01:06:24.759Z,18.50
2023-02-15T01:06:57.219Z,18.90
2023-02-15T01:07:29.694Z,18.60
2023-02-15T01:08:02.169Z,19.00
2023-02-15T01:08:34.650Z,19.60
2023-02-15T01:09:07.118Z,20.60
2023-02-15T01:09:39.573Z,19.20
2023-02-15T01:10:12.016Z,19.20
2023-02-15T01:10:44.425Z,19.70
2023-02-15T01:11:16.897Z,18.60
2023-02-15T01:11:49.406Z,17.90
2023-02-15T01:12:21.848Z,18.30
2023-02-15T01:12:54.382Z,18.60
2023-02-15T01:13:26.858Z,18.60
2023-02-15T01:13:59.322Z,19.00
2023-02-15T01:14:31.827Z,19.20
2023-02-15T01:15:04.399Z,17.70
2023-02-15T01:15:36.771Z,19.10
2023-02-15T01:16:09.323Z,18.90
2023-02-15T01:16:41.691Z,17.50
2023-02-15T01:17:14.163Z,18.40
2023-02-15T01:17:46.754Z,19.40
2023-02-15T01:18:19.075Z,18.70
2023-02-15T01:18:51.550Z,17.60
2023-02-15T01:19:24.018Z,18.50
2023-02-15T01:19:56.507Z,19.10
2023-02-15T01:20:28.989Z,18.00
2023-02-15T01:21:01.545Z,19.00
2023-02-15T01:21:34.026Z,20.10
2023-02-15T01:22:06.549Z,17.70
2023-02-15T01:22:38.978Z,16.50
2023-02-15T01:23:11.427Z,18.00
2023-02-15T01:23:43.911Z,18.50
2023-02-15T01:24:16.341Z,17.50
2023-02-15T01:24:48.929Z,18.20
2023-02-15T01:25:21.399Z,17.20
2023-02-15T01:25:53.860Z,17.20
2023-02-15T01:26:26.308Z,20.40
2023-02-15T01:26:58.730Z,20.00
2023-02-15T01:27:31.197Z,18.70
2023-02-15T01:28:03.653Z,17.80
2023-02-15T01:28:36.127Z,18.30
2023-02-15T01:29:08.586Z,18.10
2023-02-15T01:29:41.061Z,18.50
2023-02-15T01:30:13.615Z,17.80
2023-02-15T01:30:46.088Z,17.50
2023-02-15T01:31:18.557Z,17.90
2023-02-15T01:31:51.078Z,18.10
2023-02-15T01:32:23.453Z,19.40
2023-02-15T01:32:55.921Z,19.50
2023-02-15T01:33:28.408Z,20.00
2023-02-15T01:34:00.897Z,19.70
2023-02-15T01:34:33.348Z,18.70
2023-02-15T01:35:05.822Z,19.40
2023-02-15T01:35:38.270Z,17.90
2023-02-15T01:36:10.746Z,18.90
2023-02-15T01:36:43.182Z,19.50
2023-02-15T01:37:15.631Z,19.50
2023-02-15T01:37:48.117Z,19.80
2023-02-15T01:38:20.579Z,19.40
2023-02-15T01:38:53.023Z,17.90
2023-02-15T01:39:25.525Z,17.70
2023-02-15T01:39:57.961Z,18.10
2023-02-15T01:40:30.414Z,19.00
2023-02-15T01:41:02.935Z,18.60
2023-02-15T01:41:35.513Z,18.00
2023-02-15T01:42:07.993Z,17.90
2023-02-15T01:42:40.485Z,18.30
2023-02-15T01:43:12.971Z,18.80
2023-02-15T01:43:45.438Z,18.40
2023-02-15T01:44:17.886Z,18.90
2023-02-15T01:44:50.355Z,17.90
2023-02-15T01:45:22.779Z,18.50
2023-02-15T01:45:55.351Z,18.30
2023-02-15T01:46:27.838Z,18.60
2023-02-15T01:47:00.240Z,17.70
2023-02-15T01:47:32.715Z,19.10
2023-02-15T01:48:05.280Z,20.60
2023-02-15T01:48:37.743Z,18.50
2023-02-15T01:49:10.179Z,18.40
2023-02-15T01:49:42.662Z,19.20
2023-02-15T01:50:15.153Z,21.00
2023-02-15T01:50:47.647Z,19.30
2023-02-15T01:51:20.054Z,17.90
2023-02-15T01:51:52.507Z,18.20
2023-02-15T01:52:24.976Z,18.90
2023-02-15T01:52:57.448Z,19.20
2023-02-15T01:53:29.895Z,18.00
2023-02-15T01:54:02.397Z,18.30
2023-02-15T01:54:34.842Z,19.30
2023-02-15T01:55:08.014Z,18.60
2023-02-15T01:55:39.829Z,18.10
2023-02-15T01:56:12.337Z,18.10
2023-02-15T01:56:44.834Z,19.30
2023-02-15T01:57:17.340Z,19.20
2023-02-15T01:57:49.863Z,20.00
2023-02-15T01:58:22.294Z,20.10
2023-02-15T01:58:54.780Z,17.90
2023-02-15T01:59:27.375Z,18.00
2023-02-15T01:59:59.873Z,17.70
2023-02-15T02:00:32.337Z,17.80
2023-02-15T02:01:04.877Z,18.70
2023-02-15T02:01:37.293Z,18.30
2023-02-15T02:02:09.730Z,16.90
2023-02-15T02:02:42.276Z,17.20
2023-02-15T02:03:14.743Z,17.30
2023-02-15T02:03:47.280Z,19.00
2023-02-15T02:04:19.774Z,19.90
2023-02-15T02:04:52.235Z,18.60
2023-02-15T02:05:24.766Z,18.10
2023-02-15T02:05:57.222Z,18.10
2023-02-15T02:06:29.682Z,19.20
2023-02-15T02:07:02.251Z,18.50
2023-02-15T02:07:34.664Z,18.50
2023-02-15T02:08:07.130Z,19.20
2023-02-15T02:08:39.597Z,19.40
2023-02-15T02:09:12.065Z,18.80
2023-02-15T02:09:44.556Z,18.70
2023-02-15T02:10:17.027Z,18.20
2023-02-15T02:10:49.649Z,18.00
2023-02-15T02:11:22.132Z,19.10
2023-02-15T02:11:54.599Z,20.70
2023-02-15T02:12:27.134Z,21.60
2023-02-15T02:12:59.666Z,19.10
2023-02-15T02:13:32.211Z,18.40
2023-02-15T02:14:04.684Z,17.70
2023-02-15T02:14:37.260Z,17.00
2023-02-15T02:15:09.704Z,18.90
2023-02-15T02:15:42.169Z,19.60
2023-02-15T02:16:14.663Z,19.50
2023-02-15T02:16:47.078Z,19.20
2023-02-15T02:17:19.633Z,20.20
2023-02-15T02:17:52.183Z,18.90
2023-02-15T02:18:24.642Z,18.80
2023-02-15T02:18:57.154Z,19.50
2023-02-15T02:19:29.632Z,18.10
2023-02-15T02:20:02.157Z,18.70
2023-02-15T02:20:34.678Z,20.10
2023-02-15T02:21:07.151Z,19.80
2023-02-15T02:21:39.618Z,19.20
2023-02-15T02:22:12.048Z,19.60
2023-02-15T02:22:44.564Z,19.20
2023-02-15T02:23:17.038Z,17.80
2023-02-15T02:23:49.523Z,18.90
2023-02-15T02:24:22.063Z,19.10
2023-02-15T02:24:54.554Z,19.20
2023-02-15T02:25:27.044Z,19.80
2023-02-15T02:25:59.915Z,19.10
2023-02-15T02:26:32.038Z,18.60
2023-02-15T02:27:04.505Z,18.30
2023-02-15T02:27:37.017Z,19.00
2023-02-15T02:28:09.520Z,19.40
2023-02-15T02:28:41.939Z,19.80
2023-02-15T02:29:14.385Z,19.40
2023-02-15T02:29:46.837Z,19.90
2023-02-15T02:30:19.324Z,19.10
2023-02-15T02:30:51.914Z,19.40
2023-02-15T02:31:24.500Z,19.60
2023-02-15T02:31:56.781Z,19.10
2023-02-15T02:32:29.213Z,18.60
2023-02-15T02:33:01.670Z,18.00
2023-02-15T02:33:34.156Z,19.30
2023-02-15T02:34:06.651Z,18.40
2023-02-15T02:34:39.098Z,18.20
2023-02-15T02:35:11.535Z,18.30
2023-02-15T02:35:43.999Z,17.70
2023-02-15T02:36:16.544Z,19.40
2023-02-15T02:36:49.006Z,19.10
2023-02-15T02:37:21.466Z,18.90
2023-02-15T02:37:53.935Z,19.80
2023-02-15T02:38:26.400Z,20.80
2023-02-15T02:38:58.935Z,19.80
2023-02-15T02:39:31.398Z,19.50
2023-02-15T02:40:03.887Z,19.60
2023-02-15T02:40:36.345Z,20.10
2023-02-15T02:41:08.816Z,19.70
2023-02-15T02:41:41.274Z,19.90
2023-02-15T02:42:13.748Z,20.20
2023-02-15T02:42:46.229Z,19.80
2023-02-15T02:43:18.696Z,19.40
2023-02-15T02:43:51.221Z,21.00
2023-02-15T02:44:23.657Z,19.30
2023-02-15T02:44:56.145Z,19.30
2023-02-15T02:45:28.634Z,21.50
2023-02-15T02:46:01.412Z,21.60
2023-02-15T02:46:33.695Z,22.40
2023-02-15T02:47:06.131Z,22.90
2023-02-15T02:47:38.596Z,21.30
2023-02-15T02:48:11.090Z,21.10
2023-02-15T02:48:43.592Z,23.10
2023-02-15T02:49:16.069Z,23.30
2023-02-15T02:49:48.601Z,22.40
2023-02-15T02:50:21.100Z,22.50
2023-02-15T02:50:53.576Z,22.50
2023-02-15T02:51:26.081Z,22.30
2023-02-15T02:51:58.521Z,22.10
2023-02-15T02:52:30.995Z,23.30
2023-02-15T02:53:03.487Z,22.60
2023-02-15T02:53:36.011Z,21.00
2023-02-15T02:54:08.486Z,21.40
2023-02-15T02:54:40.983Z,21.40
2023-02-15T02:55:13.520Z,22.10
2023-02-15T02:55:45.981Z,22.10
2023-02-15T02:56:18.463Z,20.80
2023-02-15T02:56:50.941Z,20.20
2023-02-15T02:57:23.469Z,19.80
2023-02-15T02:57:55.897Z,17.90
2023-02-15T02:58:28.442Z,17.30
2023-02-15T02:59:00.972Z,19.60
2023-02-15T02:59:33.443Z,20.20
2023-02-15T03:00:05.952Z,20.50
2023-02-15T03:00:38.425Z,21.80
2023-02-15T03:01:10.926Z,21.90
2023-02-15T03:01:43.468Z,20.30
2023-02-15T03:02:15.882Z,19.90
2023-02-15T03:02:48.378Z,19.60
2023-02-15T03:03:20.811Z,20.90
2023-02-15T03:03:53.266Z,22.20
2023-02-15T03:04:25.745Z,22.90
2023-02-15T03:04:58.217Z,22.40
2023-02-15T03:05:30.733Z,22.50
2023-02-15T03:06:03.475Z,23.70
2023-02-15T03:06:35.745Z,23.00
2023-02-15T03:07:08.232Z,22.60
2023-02-15T03:07:40.704Z,22.60
2023-02-15T03:08:13.179Z,22.70
2023-02-15T03:08:45.661Z,22.80
2023-02-15T03:09:18.104Z,23.10
2023-02-15T03:09:50.693Z,22.50
2023-02-15T03:10:23.219Z,23.60
2023-02-15T03:10:55.679Z,23.10
2023-02-15T03:11:28.174Z,22.70
2023-02-15T03:12:00.686Z,23.70
2023-02-15T03:12:33.139Z,22.60
2023-02-15T03:13:05.633Z,23.40
2023-02-15T03:13:38.083Z,24.10
2023-02-15T03:14:10.530Z,24.40
2023-02-15T03:14:43.026Z,25.10
2023-02-15T03:15:15.494Z,24.40
2023-02-15T03:15:48.006Z,24.70
2023-02-15T03:16:20.450Z,24.00
2023-02-15T03:16:52.903Z,23.10
2023-02-15T03:17:25.376Z,23.90
2023-02-15T03:17:57.929Z,23.60
2023-02-15T03:18:30.394Z,22.50
2023-02-15T03:19:02.844Z,22.60
2023-02-15T03:19:35.320Z,24.40
2023-02-15T03:20:07.774Z,24.10
2023-02-15T03:20:40.293Z,23.50
2023-02-15T03:21:12.739Z,23.40
2023-02-15T03:21:45.293Z,22.90
2023-02-15T03:22:17.777Z,22.70
2023-02-15T03:22:50.293Z,21.70
2023-02-15T03:23:22.784Z,22.30
2023-02-15T03:23:55.276Z,21.50
2023-02-15T03:24:27.826Z,21.10
2023-02-15T03:25:00.341Z,22.30
2023-02-15T03:25:32.866Z,21.30
2023-02-15T03:26:05.359Z,22.60
2023-02-15T03:26:37.884Z,23.60
2023-02-15T03:27:10.404Z,21.90
2023-02-15T03:27:42.901Z,23.00
2023-02-15T03:28:15.415Z,23.50
2023-02-15T03:28:47.926Z,24.10
2023-02-15T03:29:20.406Z,22.90
2023-02-15T03:29:52.952Z,21.30
2023-02-15T03:30:25.422Z,21.80
2023-02-15T03:30:57.951Z,22.00
2023-02-15T03:31:30.481Z,22.50
2023-02-15T03:32:02.980Z,22.70
2023-02-15T03:32:35.352Z,22.20
2023-02-15T03:33:07.878Z,21.00
2023-02-15T03:33:40.350Z,21.40
2023-02-15T03:34:12.906Z,21.90
2023-02-15T03:34:45.383Z,21.90
2023-02-15T03:35:17.842Z,22.50
2023-02-15T03:35:50.402Z,22.60
2023-02-15T03:36:22.872Z,21.60
2023-02-15T03:36:55.384Z,20.70
2023-02-15T03:37:27.837Z,21.20
2023-02-15T03:38:00.290Z,22.50
2023-02-15T03:38:32.764Z,20.90
2023-02-15T03:39:05.213Z,21.30
2023-02-15T03:39:37.684Z,23.40
2023-02-15T03:40:10.173Z,22.50
2023-02-15T03:40:42.648Z,22.70
2023-02-15T03:41:15.108Z,22.80
2023-02-15T03:41:47.578Z,22.40
2023-02-15T03:42:20.057Z,22.40
2023-02-15T03:42:52.555Z,21.80
2023-02-15T03:43:25.180Z,21.50
2023-02-15T03:43:57.838Z,20.60
2023-02-15T03:44:30.316Z,21.30
2023-02-15T03:45:02.779Z,21.30
2023-02-15T03:45:35.346Z,21.70
2023-02-15T03:46:07.826Z,21.70
2023-02-15T03:46:40.304Z,20.50
2023-02-15T03:47:12.733Z,19.70
2023-02-15T03:47:45.251Z,23.00
2023-02-15T03:48:17.755Z,23.00
2023-02-15T03:48:50.312Z,20.50
2023-02-15T03:49:22.739Z,19.90
2023-02-15T03:49:55.260Z,20.50
2023-02-15T03:50:27.732Z,21.50
2023-02-15T03:51:00.222Z,20.80
2023-02-15T03:51:32.723Z,21.40
2023-02-15T03:52:05.183Z,22.30
2023-02-15T03:52:37.652Z,21.70
2023-02-15T03:53:10.146Z,20.60
2023-02-15T03:53:42.591Z,20.30
2023-02-15T03:54:15.033Z,19.30
2023-02-15T03:54:47.525Z,21.20
2023-02-15T03:55:19.959Z,21.60
2023-02-15T03:55:52.434Z,20.50
2023-02-15T03:56:24.888Z,20.30
2023-02-15T03:56:57.358Z,19.60
2023-02-15T03:57:29.837Z,19.70
2023-02-15T03:58:02.295Z,21.00
2023-02-15T03:58:34.770Z,20.50
2023-02-15T03:59:07.228Z,20.30
2023-02-15T03:59:39.711Z,21.10
2023-02-15T04:00:12.171Z,21.10
2023-02-15T04:00:44.690Z,20.80
2023-02-15T04:01:17.145Z,20.60
2023-02-15T04:01:49.514Z,20.80
2023-02-15T04:02:22.029Z,20.80
2023-02-15T04:02:54.610Z,20.70
2023-02-15T04:03:27.090Z,21.20
2023-02-15T04:03:59.569Z,20.60
2023-02-15T04:04:32.051Z,20.60
2023-02-15T04:05:04.523Z,20.30
2023-02-15T04:05:37.020Z,20.10
2023-02-15T04:06:09.510Z,20.90
2023-02-15T04:06:41.953Z,19.60
2023-02-15T04:07:14.430Z,20.00
2023-02-15T04:07:46.907Z,20.00
2023-02-15T04:08:19.385Z,19.30
2023-02-15T04:08:51.885Z,19.40
2023-02-15T04:09:24.364Z,18.90
2023-02-15T04:09:56.883Z,19.00
2023-02-15T04:10:29.388Z,18.20
2023-02-15T04:11:01.856Z,16.50
2023-02-15T04:11:34.346Z,16.90
2023-02-15T04:12:06.810Z,19.00
2023-02-15T04:12:39.381Z,18.60
2023-02-15T04:13:11.842Z,17.90
2023-02-15T04:13:44.336Z,18.10
2023-02-15T04:14:16.852Z,19.00
2023-02-15T04:14:49.299Z,18.60
2023-02-15T04:15:21.754Z,18.10
2023-02-15T04:15:54.212Z,18.20
2023-02-15T04:16:26.737Z,19.10
2023-02-15T04:16:59.185Z,20.40
2023-02-15T04:17:31.650Z,19.70
2023-02-15T04:18:04.127Z,19.20
2023-02-15T04:18:36.584Z,20.50
2023-02-15T04:19:09.061Z,20.10
2023-02-15T04:19:41.486Z,19.40
2023-02-15T04:20:13.982Z,19.10
2023-02-15T04:20:46.466Z,17.90
2023-02-15T04:21:18.954Z,18.20
2023-02-15T04:21:51.404Z,18.60
2023-02-15T04:22:23.888Z,17.60
2023-02-15T04:22:56.381Z,17.70
2023-02-15T04:23:28.859Z,18.20
2023-02-15T04:24:01.311Z,17.70
2023-02-15T04:24:33.770Z,18.30
2023-02-15T04:25:06.209Z,17.70
2023-02-15T04:25:38.687Z,17.60
2023-02-15T04:26:11.198Z,18.40
2023-02-15T04:26:43.701Z,16.90
2023-02-15T04:27:17.744Z,16.80
2023-02-15T04:27:48.619Z,17.60
2023-02-15T04:28:21.070Z,18.00
2023-02-15T04:28:53.510Z,18.70
2023-02-15T04:29:25.989Z,19.20
2023-02-15T04:29:58.519Z,19.90
2023-02-15T04:30:30.980Z,17.70
2023-02-15T04:31:03.454Z,17.40
2023-02-15T04:31:35.988Z,18.10
2023-02-15T04:32:08.437Z,18.10
2023-02-15T04:32:40.837Z,19.00
2023-02-15T04:33:13.297Z,18.90
2023-02-15T04:33:45.732Z,18.00
2023-02-15T04:34:18.197Z,17.30
2023-02-15T04:34:50.663Z,17.90
2023-02-15T04:35:23.124Z,18.30
2023-02-15T04:35:55.615Z,17.40
2023-02-15T04:36:28.166Z,17.10
2023-02-15T04:37:00.646Z,18.90
2023-02-15T04:37:33.120Z,19.20
2023-02-15T04:38:05.662Z,17.80
2023-02-15T04:38:38.132Z,18.00
2023-02-15T04:39:10.619Z,19.30
2023-02-15T04:39:43.087Z,19.70
2023-02-15T04:40:17.314Z,18.50
2023-02-15T04:40:48.099Z,18.20
2023-02-15T04:41:20.607Z,18.50
2023-02-15T04:41:53.078Z,19.30
2023-02-15T04:42:25.531Z,19.10
2023-02-15T04:42:58.011Z,18.00
2023-02-15T04:43:30.518Z,18.70
2023-02-15T04:44:02.995Z,19.30
2023-02-15T04:44:35.463Z,18.10
2023-02-15T04:45:07.944Z,17.70
2023-02-15T04:45:40.426Z,17.40
2023-02-15T04:46:13.036Z,18.40
2023-02-15T04:46:45.504Z,19.00
2023-02-15T04:47:17.985Z,17.60
2023-02-15T04:47:50.535Z,17.30
2023-02-15T04:48:22.990Z,17.70
2023-02-15T04:48:55.477Z,17.50
2023-02-15T04:49:27.934Z,16.70
2023-02-15T04:50:00.451Z,17.40
2023-02-15T04:50:32.931Z,17.60
2023-02-15T04:51:05.391Z,18.30
2023-02-15T04:51:37.846Z,16.60
2023-02-15T04:52:10.308Z,17.00
2023-02-15T04:52:42.821Z,17.40
2023-02-15T04:53:15.291Z,16.90
2023-02-15T04:53:47.745Z,17.00
2023-02-15T04:54:20.243Z,18.00
2023-02-15T04:54:52.715Z,17.40
2023-02-15T04:55:25.142Z,15.90
2023-02-15T04:55:57.603Z,16.10
2023-02-15T04:56:30.147Z,17.10
2023-02-15T04:57:02.646Z,17.30
2023-02-15T04:57:35.104Z,17.40
2023-02-15T04:58:07.586Z,17.50
2023-02-15T04:58:40.042Z,17.80
2023-02-15T04:59:12.515Z,17.60
2023-02-15T04:59:44.965Z,17.70
2023-02-15T05:00:17.457Z,17.20
2023-02-15T05:00:50.017Z,17.60
2023-02-15T05:01:22.475Z,18.50
2023-02-15T05:01:54.917Z,19.30
2023-02-15T05:02:27.399Z,18.90
2023-02-15T05:02:59.869Z,17.00
2023-02-15T05:03:32.331Z,16.70
2023-02-15T05:04:04.831Z,16.80
2023-02-15T05:04:37.299Z,16.90
2023-02-15T05:05:09.724Z,16.80
2023-02-15T05:05:42.212Z,16.60
2023-02-15T05:06:14.685Z,16.70
2023-02-15T05:06:47.161Z,17.60
2023-02-15T05:07:19.612Z,17.50
2023-02-15T05:07:52.117Z,15.80
2023-02-15T05:08:24.600Z,15.50
2023-02-15T05:08:57.132Z,16.80
2023-02-15T05:09:29.559Z,17.20
2023-02-15T05:10:02.058Z,18.30
2023-02-15T05:10:34.520Z,17.90
2023-02-15T05:11:06.989Z,17.30
2023-02-15T05:11:39.452Z,17.20
2023-02-15T05:12:11.928Z,16.20
2023-02-15T05:12:44.457Z,16.60
2023-02-15T05:13:16.911Z,17.80
2023-02-15T05:13:49.379Z,18.00
2023-02-15T05:14:21.869Z,17.10
2023-02-15T05:14:54.330Z,16.20
2023-02-15T05:15:28.509Z,16.70
2023-02-15T05:16:08.237Z,16.70
2023-02-15T05:16:40.749Z,17.10
2023-02-15T05:17:13.142Z,17.00
2023-02-15T05:17:45.650Z,17.00
2023-02-15T05:18:18.151Z,17.00
2023-02-15T05:18:50.615Z,16.00
2023-02-15T05:19:23.102Z,16.20
2023-02-15T05:19:55.582Z,16.80
2023-02-15T05:20:28.049Z,16.50
2023-02-15T05:21:00.500Z,16.40
2023-02-15T05:21:32.971Z,16.80
2023-02-15T05:22:05.497Z,17.40
2023-02-15T05:22:38.004Z,17.20
2023-02-15T05:23:10.480Z,17.30
2023-02-15T05:23:42.969Z,16.80
2023-02-15T05:24:15.441Z,17.10
2023-02-15T05:24:47.930Z,17.00
2023-02-15T05:25:20.413Z,17.10
2023-02-15T05:25:52.945Z,16.50
2023-02-15T05:26:25.433Z,15.50
2023-02-15T05:26:57.919Z,15.60
2023-02-15T05:27:30.399Z,16.10
2023-02-15T05:28:05.108Z,15.90
2023-02-15T05:28:35.394Z,17.40
2023-02-15T05:29:07.895Z,18.20
2023-02-15T05:29:40.445Z,16.40
2023-02-15T05:30:13.129Z,16.60
2023-02-15T05:30:45.636Z,16.40
2023-02-15T05:31:18.162Z,16.40
2023-02-15T05:31:50.544Z,17.40
2023-02-15T05:32:22.927Z,17.20
2023-02-15T05:32:55.411Z,16.00
2023-02-15T05:33:27.877Z,15.70
2023-02-15T05:34:00.335Z,15.60
2023-02-15T05:34:32.842Z,16.70
2023-02-15T05:35:06.103Z,17.70
2023-02-15T05:35:38.629Z,16.80
2023-02-15T05:36:11.098Z,16.20
2023-02-15T05:36:43.580Z,17.10
2023-02-15T05:37:16.079Z,16.80
2023-02-15T05:37:48.589Z,17.30
2023-02-15T05:38:21.123Z,16.90
2023-02-15T05:38:53.633Z,17.50
2023-02-15T05:39:26.176Z,18.90
2023-02-15T05:39:58.638Z,18.80
2023-02-15T05:40:31.105Z,16.40
2023-02-15T05:41:03.604Z,16.40
2023-02-15T05:41:36.150Z,17.10
2023-02-15T05:42:08.612Z,17.20
2023-02-15T05:42:41.105Z,17.10
2023-02-15T05:43:13.588Z,17.00
2023-02-15T05:43:46.070Z,18.20
2023-02-15T05:44:18.636Z,18.10
2023-02-15T05:44:51.145Z,17.80
2023-02-15T05:45:23.671Z,17.10
2023-02-15T05:45:56.163Z,16.80
2023-02-15T05:46:28.695Z,17.10
2023-02-15T05:47:01.031Z,17.60
2023-02-15T05:47:33.515Z,17.30
2023-02-15T05:48:05.984Z,16.60
2023-02-15T05:48:38.452Z,15.80
2023-02-15T05:49:10.904Z,15.50
2023-02-15T05:49:43.406Z,17.10
2023-02-15T05:50:15.891Z,19.30
2023-02-15T05:50:48.348Z,18.00
2023-02-15T05:51:20.829Z,17.50
2023-02-15T05:51:53.302Z,18.00
2023-02-15T05:52:25.808Z,16.90
2023-02-15T05:52:58.311Z,16.40
2023-02-15T05:53:30.844Z,16.60
2023-02-15T05:54:03.303Z,16.20
2023-02-15T05:54:35.820Z,15.50
2023-02-15T05:55:08.275Z,15.10
2023-02-15T05:55:40.782Z,16.30
2023-02-15T05:56:13.311Z,16.00
2023-02-15T05:56:45.776Z,16.60
2023-02-15T05:57:18.289Z,17.50
2023-02-15T05:57:50.788Z,17.60
2023-02-15T05:58:23.297Z,15.70
2023-02-15T05:58:55.744Z,16.80
2023-02-15T05:59:28.196Z,16.60
2023-02-15T06:00:00.694Z,15.10
2023-02-15T06:00:33.206Z,16.10
2023-02-15T06:01:05.703Z,16.10
2023-02-15T06:01:38.261Z,16.30
2023-02-15T06:02:10.784Z,16.80
2023-02-15T06:02:43.423Z,15.50
2023-02-15T06:03:15.865Z,16.30
2023-02-15T06:03:48.349Z,16.70
2023-02-15T06:04:20.778Z,16.40
2023-02-15T06:04:53.254Z,17.50
2023-02-15T06:05:25.763Z,17.50
2023-02-15T06:05:58.237Z,16.40
2023-02-15T06:06:30.679Z,16.40
2023-02-15T06:07:03.171Z,16.80
2023-02-15T06:07:36.308Z,16.70
2023-02-15T06:08:08.763Z,17.20
2023-02-15T06:08:41.235Z,15.50
2023-02-15T06:09:13.733Z,14.30
2023-02-15T06:09:46.207Z,15.60
2023-02-15T06:10:18.748Z,18.90
2023-02-15T06:10:51.249Z,18.60
2023-02-15T06:11:23.722Z,15.70
2023-02-15T06:11:56.198Z,16.10
2023-02-15T06:12:28.683Z,16.20
2023-02-15T06:13:01.151Z,16.10
2023-02-15T06:13:34.891Z,15.90
2023-02-15T06:14:06.185Z,15.80
2023-02-15T06:14:38.686Z,15.10
2023-02-15T06:15:11.177Z,16.00
2023-02-15T06:15:43.714Z,17.20
2023-02-15T06:16:16.421Z,16.30
2023-02-15T06:16:48.906Z,16.40
2023-02-15T06:17:21.467Z,16.80
2023-02-15T06:17:53.956Z,17.30
2023-02-15T06:18:26.412Z,16.50
2023-02-15T06:18:58.958Z,17.80
2023-02-15T06:19:31.450Z,18.40
2023-02-15T06:20:03.914Z,17.40
2023-02-15T06:20:36.362Z,20.30
2023-02-15T06:21:08.850Z,24.80
2023-02-15T06:21:41.306Z,25.20
2023-02-15T06:22:13.842Z,23.40
2023-02-15T06:22:46.323Z,20.70
2023-02-15T06:23:18.799Z,17.00
2023-02-15T06:23:51.289Z,16.30
2023-02-15T06:24:23.761Z,17.50
2023-02-15T06:24:56.272Z,17.80
2023-02-15T06:25:28.771Z,16.70
2023-02-15T06:26:01.550Z,15.90
2023-02-15T06:26:33.773Z,16.10
2023-02-15T06:27:06.246Z,15.80
2023-02-15T06:27:38.732Z,18.00
2023-02-15T06:28:11.202Z,17.40
2023-02-15T06:28:43.665Z,15.70
2023-02-15T06:29:16.170Z,16.00
2023-02-15T06:29:48.701Z,16.80
2023-02-15T06:30:21.231Z,17.50
2023-02-15T06:30:53.750Z,17.00
2023-02-15T06:31:26.235Z,16.80
2023-02-15T06:31:58.669Z,15.60
2023-02-15T06:32:31.108Z,15.70
2023-02-15T06:33:03.625Z,16.90
2023-02-15T06:33:36.129Z,17.10
2023-02-15T06:34:08.612Z,17.10
2023-02-15T06:34:41.181Z,17.10
2023-02-15T06:35:13.657Z,16.00
2023-02-15T06:35:46.170Z,14.60
2023-02-15T06:36:18.662Z,15.40
2023-02-15T06:36:51.174Z,17.90
2023-02-15T06:37:23.669Z,17.20
2023-02-15T06:37:56.816Z,16.70
2023-02-15T06:38:29.328Z,17.60
2023-02-15T06:39:01.787Z,16.90
2023-02-15T06:39:34.287Z,16.10
2023-02-15T06:40:06.766Z,17.20
2023-02-15T06:40:39.273Z,16.50
2023-02-15T06:41:11.698Z,15.90
2023-02-15T06:41:44.152Z,16.20
2023-02-15T06:42:16.602Z,17.90
2023-02-15T06:42:49.109Z,17.50
2023-02-15T06:43:21.562Z,16.50
2023-02-15T06:43:54.023Z,17.10
2023-02-15T06:44:26.524Z,16.30
2023-02-15T06:44:59.013Z,15.00
2023-02-15T06:45:31.495Z,16.50
2023-02-15T06:46:04.230Z,16.20
2023-02-15T06:46:36.485Z,16.10
2023-02-15T06:47:08.908Z,16.70
2023-02-15T06:47:41.515Z,16.10
2023-02-15T06:48:13.999Z,16.50
2023-02-15T06:48:46.461Z,17.00
2023-02-15T06:49:18.926Z,17.30
2023-02-15T06:49:51.405Z,16.20
2023-02-15T06:50:23.968Z,16.30
2023-02-15T06:50:56.456Z,15.60
2023-02-15T06:51:28.943Z,15.30
2023-02-15T06:52:01.446Z,16.10
2023-02-15T06:52:33.983Z,15.00
2023-02-15T06:53:06.457Z,15.50
2023-02-15T06:53:38.957Z,16.10
2023-02-15T06:54:11.421Z,16.10
2023-02-15T06:54:43.906Z,16.90
2023-02-15T06:55:16.397Z,15.80
2023-02-15T06:55:48.949Z,16.30
2023-02-15T06:56:21.445Z,16.50
2023-02-15T06:56:53.894Z,16.90
2023-02-15T06:57:26.357Z,17.80
2023-02-15T06:57:58.842Z,16.70
2023-02-15T06:58:31.296Z,15.70